Time;durP1;ratioP1;P1;durP2;ratioP2;P2;SDS_P1;SDS_P2;PMS_P1;PMS_P2;Temp;Humidity;BMP_temperature;BMP_pressure;BME280_temperature;BME280_humidity;BME280_pressure;Samples;Min_cycle;Max_cycle;Signal;HPM_P1;HPM_P2
2022/02/24 00:01:59;;;;;;;;;;;9.40;99.90;;;;;;4969476;28;19906;-90
2022/02/24 00:04:24;;;;;;;;;;;9.40;99.90;;;;;;4976295;28;19952;-91
2022/02/24 00:06:50;;;;;;;;;;;9.40;99.90;;;;;;4966248;28;19921;-91
2022/02/24 00:09:15;;;;;;;;;;;9.40;99.90;;;;;;4971675;28;19907;-90
2022/02/24 00:11:41;;;;;;;;;;;9.40;99.90;;;;;;4969112;28;19938;-90
2022/02/24 00:14:07;;;;;;;;;;;9.40;99.90;;;;;;4958368;29;19977;-91
2022/02/24 00:16:32;;;;;;;;;;;9.40;99.90;;;;;;4985513;28;19907;-90
2022/02/24 00:18:58;;;;;;;;;;;9.30;99.90;;;;;;4991183;28;19914;-90
2022/02/24 00:21:24;;;;;;;;;;;9.30;99.90;;;;;;4989560;28;19941;-89
2022/02/24 00:23:49;;;;;;;;;;;9.30;99.90;;;;;;4989364;28;19925;-91
2022/02/24 00:26:15;;;;;;;;;;;9.30;99.90;;;;;;4966688;28;19910;-91
2022/02/24 00:28:40;;;;;;;;;;;9.20;99.90;;;;;;4986236;28;19941;-88
2022/02/24 00:31:09;;;;;;;;;;;9.30;99.90;;;;;;4995347;28;19903;-89
2022/02/24 00:33:51;;;;;;;;;;;9.20;99.90;;;;;;4994338;28;19953;-90
2022/02/24 00:36:17;;;;;;;;;;;9.20;99.90;;;;;;4980383;28;19906;-89
2022/02/24 00:38:42;;;;;;;;;;;9.20;99.90;;;;;;4976849;28;19917;-90
2022/02/24 00:41:08;;;;;;;;;;;9.20;99.90;;;;;;4993631;28;19908;-89
2022/02/24 00:43:33;;;;;;;;;;;9.20;99.90;;;;;;4993797;28;19906;-90
2022/02/24 00:45:59;;;;;;;;;;;9.20;99.90;;;;;;4978070;28;19918;-91
2022/02/24 00:48:24;;;;;;;;;;;9.20;99.90;;;;;;4995650;28;19928;-90
2022/02/24 00:50:50;;;;;;;;;;;9.10;99.90;;;;;;4963328;28;19907;-89
2022/02/24 00:53:15;;;;;;;;;;;9.10;99.90;;;;;;4977403;28;19910;-90
2022/02/24 00:55:41;;;;;;;;;;;9.10;99.90;;;;;;4988969;28;19906;-89
2022/02/24 00:58:07;;;;;;;;;;;9.10;99.90;;;;;;4984206;28;19911;-90
2022/02/24 01:00:32;;;;;;;;;;;9.10;99.90;;;;;;4987148;28;19916;-90
2022/02/24 01:02:58;;;;;;;;;;;9.10;99.90;;;;;;4965696;28;19906;-90
2022/02/24 01:05:23;;;;;;;;;;;9.10;99.90;;;;;;4957770;29;19911;-90
2022/02/24 01:07:49;;;;;;;;;;;9.10;99.90;;;;;;4968687;28;20099;-90
2022/02/24 01:10:14;;;;;;;;;;;9.10;99.90;;;;;;4948282;29;19919;-90
2022/02/24 01:12:40;;;;;;;;;;;9.10;99.90;;;;;;4966966;28;19910;-89
2022/02/24 01:15:09;;;;;;;;;;;9.10;99.90;;;;;;4955377;29;19906;-90
2022/02/24 01:17:36;;;;;;;;;;;9.10;99.90;;;;;;4967648;28;20056;-91
2022/02/24 01:20:02;;;;;;;;;;;9.10;99.90;;;;;;4974588;28;19911;-91
2022/02/24 01:22:28;;;;;;;;;;;9.10;99.90;;;;;;4970401;28;19910;-90
2022/02/24 01:24:53;;;;;;;;;;;9.10;99.90;;;;;;4968327;28;19943;-90
2022/02/24 01:27:19;;;;;;;;;;;9.10;99.90;;;;;;4985951;28;19914;-89
2022/02/24 01:29:45;;;;;;;;;;;9.10;99.90;;;;;;4956661;28;19906;-90
2022/02/24 01:32:10;;;;;;;;;;;9.00;99.90;;;;;;4959763;28;19913;-90
2022/02/24 01:34:36;;;;;;;;;;;9.00;99.90;;;;;;4949791;28;20224;-90
2022/02/24 01:37:01;;;;;;;;;;;9.00;99.90;;;;;;4966460;28;19910;-90
2022/02/24 01:39:27;;;;;;;;;;;9.00;99.90;;;;;;4974005;28;19906;-91
2022/02/24 01:41:54;;;;;;;;;;;9.00;99.90;;;;;;4975741;28;19965;-90
2022/02/24 01:44:20;;;;;;;;;;;9.00;99.90;;;;;;4967002;28;19913;-90
2022/02/24 01:46:45;;;;;;;;;;;9.00;99.90;;;;;;4949017;28;19965;-91
2022/02/24 01:49:11;;;;;;;;;;;9.00;99.90;;;;;;4973981;28;19914;-90
2022/02/24 01:51:37;;;;;;;;;;;9.00;99.90;;;;;;4965904;28;19986;-91
2022/02/24 01:54:04;;;;;;;;;;;9.00;99.90;;;;;;4967820;28;19909;-90
2022/02/24 01:56:30;;;;;;;;;;;9.00;99.90;;;;;;4965014;28;19913;-90
2022/02/24 01:58:56;;;;;;;;;;;9.00;99.90;;;;;;4966319;28;19911;-91
2022/02/24 02:01:22;;;;;;;;;;;9.00;99.90;;;;;;4966281;28;20107;-91
2022/02/24 02:03:49;;;;;;;;;;;9.00;99.90;;;;;;4985531;28;19913;-90
2022/02/24 02:06:16;;;;;;;;;;;9.00;99.90;;;;;;4985419;28;19981;-90
2022/02/24 02:08:42;;;;;;;;;;;8.90;99.90;;;;;;4966907;28;19906;-90
2022/02/24 02:11:08;;;;;;;;;;;8.90;99.90;;;;;;4984975;28;19906;-90
2022/02/24 02:13:34;;;;;;;;;;;8.90;99.90;;;;;;4984513;28;19913;-90
2022/02/24 02:16:00;;;;;;;;;;;8.90;99.90;;;;;;4985077;28;19906;-90
2022/02/24 02:18:26;;;;;;;;;;;8.80;99.90;;;;;;4985197;28;19913;-90
2022/02/24 02:20:51;;;;;;;;;;;8.80;99.90;;;;;;4983884;28;19942;-90
2022/02/24 02:23:17;;;;;;;;;;;8.80;99.90;;;;;;4972025;28;19906;-90
2022/02/24 02:25:43;;;;;;;;;;;8.80;99.90;;;;;;4965958;28;19906;-90
2022/02/24 02:28:12;;;;;;;;;;;8.80;99.90;;;;;;4964818;28;20106;-91
2022/02/24 02:30:37;;;;;;;;;;;8.80;99.90;;;;;;4967318;28;20102;-90
2022/02/24 02:33:03;;;;;;;;;;;8.70;99.90;;;;;;4964361;28;19938;-90
2022/02/24 02:35:29;;;;;;;;;;;8.70;99.90;;;;;;4974083;28;19970;-90
2022/02/24 02:37:57;;;;;;;;;;;8.70;99.90;;;;;;4964922;28;20082;-90
2022/02/24 02:40:22;;;;;;;;;;;8.60;99.90;;;;;;4966285;28;19915;-90
2022/02/24 02:42:48;;;;;;;;;;;8.60;99.90;;;;;;4965816;28;19906;-89
2022/02/24 02:45:13;;;;;;;;;;;8.60;99.90;;;;;;4948273;28;19919;-90
2022/02/24 02:47:39;;;;;;;;;;;8.60;99.90;;;;;;4971055;28;19914;-90
2022/02/24 02:50:05;;;;;;;;;;;8.60;99.90;;;;;;4962537;28;19906;-91
2022/02/24 02:52:30;;;;;;;;;;;8.60;99.90;;;;;;4982992;28;19906;-90
2022/02/24 02:54:59;;;;;;;;;;;8.70;99.90;;;;;;4967340;28;19929;-90
2022/02/24 02:57:24;;;;;;;;;;;8.70;99.90;;;;;;4966937;28;19906;-90
2022/02/24 02:59:50;;;;;;;;;;;8.60;99.90;;;;;;4983952;28;19945;-90
2022/02/24 03:02:15;;;;;;;;;;;8.70;99.90;;;;;;4970958;28;19907;-89
2022/02/24 03:04:41;;;;;;;;;;;8.60;99.90;;;;;;4946316;29;19907;-91
2022/02/24 03:07:07;;;;;;;;;;;8.60;99.90;;;;;;4966113;28;19921;-89
2022/02/24 03:09:32;;;;;;;;;;;8.50;99.90;;;;;;4960607;29;19906;-90
2022/02/24 03:11:58;;;;;;;;;;;8.50;99.90;;;;;;4953579;28;19906;-89
2022/02/24 03:14:23;;;;;;;;;;;8.50;99.90;;;;;;4983573;28;19952;-91
2022/02/24 03:16:49;;;;;;;;;;;8.50;99.90;;;;;;4983546;28;19906;-90
2022/02/24 03:19:14;;;;;;;;;;;8.50;99.90;;;;;;4965968;28;19980;-90
2022/02/24 03:21:40;;;;;;;;;;;8.50;99.90;;;;;;4967467;28;19912;-90
2022/02/24 03:24:06;;;;;;;;;;;8.50;99.90;;;;;;4971153;28;19906;-90
2022/02/24 03:26:32;;;;;;;;;;;8.50;99.90;;;;;;4964948;28;19984;-90
2022/02/24 03:28:57;;;;;;;;;;;8.50;99.90;;;;;;4974487;28;20134;-90
2022/02/24 03:31:23;;;;;;;;;;;8.40;99.90;;;;;;4983343;28;19910;-90
2022/02/24 03:33:49;;;;;;;;;;;8.40;99.90;;;;;;4952021;28;20099;-90
2022/02/24 03:36:14;;;;;;;;;;;8.40;99.90;;;;;;4979198;28;19906;-90
2022/02/24 03:38:40;;;;;;;;;;;8.30;99.90;;;;;;4983746;28;20198;-90
2022/02/24 03:41:05;;;;;;;;;;;8.30;99.90;;;;;;4983241;28;20202;-90
2022/02/24 03:43:31;;;;;;;;;;;8.30;99.90;;;;;;4964000;28;19906;-90
2022/02/24 03:45:57;;;;;;;;;;;8.30;99.90;;;;;;4946791;28;19989;-90
2022/02/24 03:48:22;;;;;;;;;;;8.30;99.90;;;;;;4964054;28;20147;-90
2022/02/24 03:50:48;;;;;;;;;;;8.30;99.90;;;;;;4959791;28;19906;-89
2022/02/24 03:53:13;;;;;;;;;;;8.30;99.90;;;;;;4978213;28;20122;-90
2022/02/24 03:55:39;;;;;;;;;;;8.30;99.90;;;;;;4981897;28;19906;-90
2022/02/24 03:58:04;;;;;;;;;;;8.30;99.90;;;;;;4962933;28;19911;-90
2022/02/24 04:00:30;;;;;;;;;;;8.30;99.90;;;;;;4947046;29;20103;-90
2022/02/24 04:02:56;;;;;;;;;;;8.20;99.90;;;;;;4964109;28;20153;-90
2022/02/24 04:05:21;;;;;;;;;;;8.20;99.90;;;;;;4963829;28;19907;-89
2022/02/24 04:07:47;;;;;;;;;;;8.10;99.90;;;;;;4947396;29;19915;-91
2022/02/24 04:10:13;;;;;;;;;;;8.10;99.90;;;;;;4964549;28;20131;-90
2022/02/24 04:12:39;;;;;;;;;;;8.00;99.90;;;;;;4974688;28;19976;-90
2022/02/24 04:15:04;;;;;;;;;;;8.00;99.90;;;;;;4961915;28;19914;-89
2022/02/24 04:17:30;;;;;;;;;;;8.00;99.90;;;;;;4946121;29;19913;-91
2022/02/24 04:19:55;;;;;;;;;;;7.90;99.90;;;;;;4964149;28;19910;-90
2022/02/24 04:22:21;;;;;;;;;;;7.90;99.90;;;;;;4950137;28;20225;-90
2022/02/24 04:24:47;;;;;;;;;;;7.90;99.90;;;;;;4973526;28;20220;-90
2022/02/24 04:27:12;;;;;;;;;;;7.80;99.90;;;;;;4963918;28;20491;-90
2022/02/24 04:29:39;;;;;;;;;;;7.80;99.90;;;;;;4964101;28;19906;-90
2022/02/24 04:32:04;;;;;;;;;;;7.80;99.90;;;;;;4963420;28;19946;-89
2022/02/24 04:34:30;;;;;;;;;;;7.70;99.90;;;;;;4946473;28;19911;-90
2022/02/24 04:36:55;;;;;;;;;;;7.70;99.90;;;;;;4947033;28;19954;-90
2022/02/24 04:39:21;;;;;;;;;;;7.70;99.90;;;;;;4967288;28;19895;-88
2022/02/24 04:41:46;;;;;;;;;;;7.70;99.90;;;;;;4955712;28;20134;-89
2022/02/24 04:44:12;;;;;;;;;;;7.70;99.90;;;;;;4982522;28;19906;-91
2022/02/24 04:46:38;;;;;;;;;;;7.60;99.90;;;;;;4981740;28;19929;-90
2022/02/24 04:49:04;;;;;;;;;;;7.60;99.90;;;;;;4955932;28;19962;-91
2022/02/24 04:51:30;;;;;;;;;;;7.60;99.90;;;;;;4963543;28;20099;-91
2022/02/24 04:53:56;;;;;;;;;;;7.60;99.90;;;;;;4964236;28;19907;-91
2022/02/24 04:56:21;;;;;;;;;;;7.70;99.90;;;;;;4961636;28;19916;-90
2022/02/24 04:58:47;;;;;;;;;;;7.70;99.90;;;;;;4946304;29;19907;-90
2022/02/24 05:01:12;;;;;;;;;;;7.80;99.90;;;;;;4964093;28;19992;-90
2022/02/24 05:03:38;;;;;;;;;;;7.70;99.90;;;;;;4962789;28;19907;-90
2022/02/24 05:06:05;;;;;;;;;;;7.70;99.90;;;;;;4963391;28;19906;-90
2022/02/24 05:08:31;;;;;;;;;;;7.70;99.90;;;;;;4946253;29;19906;-90
2022/02/24 05:10:56;;;;;;;;;;;7.60;99.90;;;;;;4959918;28;19922;-90
2022/02/24 05:13:22;;;;;;;;;;;7.60;99.90;;;;;;4956172;28;19914;-92
2022/02/24 05:15:49;;;;;;;;;;;7.70;99.90;;;;;;4948885;28;19910;-91
2022/02/24 05:18:14;;;;;;;;;;;7.70;99.90;;;;;;4942318;28;19915;-91
2022/02/24 05:20:40;;;;;;;;;;;7.70;99.90;;;;;;4939902;28;20433;-92
2022/02/24 05:23:06;;;;;;;;;;;7.70;99.90;;;;;;4957301;28;19965;-91
2022/02/24 05:25:35;;;;;;;;;;;7.70;99.90;;;;;;4958924;28;19910;-91
2022/02/24 05:28:07;;;;;;;;;;;7.70;99.90;;;;;;4958936;28;20296;-91
2022/02/24 05:30:33;;;;;;;;;;;7.60;99.90;;;;;;4957749;28;19914;-91
2022/02/24 05:32:58;;;;;;;;;;;7.60;99.90;;;;;;4958858;28;19917;-91
2022/02/24 05:35:24;;;;;;;;;;;7.60;99.90;;;;;;4939129;29;20001;-90
2022/02/24 05:37:49;;;;;;;;;;;7.60;99.90;;;;;;4938833;28;20039;-91
2022/02/24 05:40:15;;;;;;;;;;;7.60;99.90;;;;;;4958420;28;19910;-92
2022/02/24 05:42:43;;;;;;;;;;;7.50;99.90;;;;;;4937753;28;20291;-92
2022/02/24 05:45:08;;;;;;;;;;;7.50;99.90;;;;;;4960882;28;19970;-91
2022/02/24 05:47:34;;;;;;;;;;;7.50;99.90;;;;;;4967158;28;20150;-92
2022/02/24 05:49:59;;;;;;;;;;;7.50;99.90;;;;;;4967953;28;20130;-91
2022/02/24 05:52:25;;;;;;;;;;;7.50;99.90;;;;;;4967759;28;19977;-91
2022/02/24 05:54:51;;;;;;;;;;;7.50;99.90;;;;;;4967820;28;19910;-91
2022/02/24 05:57:16;;;;;;;;;;;7.50;99.90;;;;;;4982559;28;19906;-90
2022/02/24 05:59:42;;;;;;;;;;;7.50;99.90;;;;;;4984480;28;19985;-91
2022/02/24 06:02:07;;;;;;;;;;;7.50;99.90;;;;;;4967147;28;19913;-91
2022/02/24 06:04:33;;;;;;;;;;;7.40;99.90;;;;;;4984317;28;19910;-91
2022/02/24 06:06:58;;;;;;;;;;;7.50;99.90;;;;;;4980396;28;19914;-91
2022/02/24 06:09:24;;;;;;;;;;;7.40;99.90;;;;;;4959612;28;19913;-91
2022/02/24 06:11:49;;;;;;;;;;;7.40;99.90;;;;;;4974002;28;19907;-91
2022/02/24 06:14:15;;;;;;;;;;;7.40;99.90;;;;;;4959059;28;19914;-89
2022/02/24 06:16:41;;;;;;;;;;;7.40;99.90;;;;;;4984946;28;20213;-90
2022/02/24 06:19:07;;;;;;;;;;;7.40;99.90;;;;;;4967249;28;19913;-91
2022/02/24 06:21:32;;;;;;;;;;;7.30;99.90;;;;;;4967156;28;19973;-91
2022/02/24 06:23:58;;;;;;;;;;;7.30;99.90;;;;;;4974902;28;19914;-91
2022/02/24 06:26:23;;;;;;;;;;;7.30;99.90;;;;;;4947976;28;19922;-92
2022/02/24 06:28:49;;;;;;;;;;;7.30;99.90;;;;;;4947174;28;19945;-91
2022/02/24 06:31:14;;;;;;;;;;;7.30;99.90;;;;;;4959826;28;19917;-91
2022/02/24 06:33:40;;;;;;;;;;;7.30;99.90;;;;;;4960911;28;19953;-91
2022/02/24 06:36:05;;;;;;;;;;;7.30;99.90;;;;;;4975338;28;19910;-91
2022/02/24 06:38:31;;;;;;;;;;;7.30;99.90;;;;;;4958660;28;19910;-91
2022/02/24 06:40:57;;;;;;;;;;;7.20;99.90;;;;;;4944216;28;19911;-91
2022/02/24 06:43:23;;;;;;;;;;;7.20;99.90;;;;;;4967139;28;19918;-95
2022/02/24 06:45:49;;;;;;;;;;;7.10;99.90;;;;;;4942914;29;20005;-92
2022/02/24 06:48:16;;;;;;;;;;;7.10;99.90;;;;;;4943459;29;20017;-93
2022/02/24 06:50:42;;;;;;;;;;;7.00;99.90;;;;;;4955883;28;19910;-91
2022/02/24 06:53:07;;;;;;;;;;;7.00;99.90;;;;;;4972675;28;19972;-92
2022/02/24 06:55:33;;;;;;;;;;;7.00;99.90;;;;;;4972638;28;20005;-93
2022/02/24 06:57:58;;;;;;;;;;;7.00;99.90;;;;;;4950323;28;20517;-95
2022/02/24 07:00:24;;;;;;;;;;;7.00;99.90;;;;;;4955962;28;20438;-92
2022/02/24 07:05:25;;;;;;;;;;;6.90;99.90;;;;;;5246760;23;19973;-94
2022/02/24 07:07:51;;;;;;;;;;;6.90;99.90;;;;;;4970716;28;19918;-92
2022/02/24 07:10:16;;;;;;;;;;;6.90;99.90;;;;;;4972522;28;19910;-96
2022/02/24 07:12:43;;;;;;;;;;;6.90;99.90;;;;;;4955376;28;20387;-92
2022/02/24 07:15:09;;;;;;;;;;;6.90;99.90;;;;;;4955273;28;19910;-91
2022/02/24 07:17:42;;;;;;;;;;;6.90;99.90;;;;;;4955190;28;19917;-92
2022/02/24 07:20:08;;;;;;;;;;;7.00;99.90;;;;;;4972499;28;19953;-92
2022/02/24 07:22:34;;;;;;;;;;;7.00;99.90;;;;;;4938189;29;19910;-94
2022/02/24 07:25:00;;;;;;;;;;;7.00;99.90;;;;;;4953809;28;19918;-91
2022/02/24 07:27:25;;;;;;;;;;;7.10;99.90;;;;;;4936207;29;19918;-94
2022/02/24 07:29:51;;;;;;;;;;;7.10;99.90;;;;;;4936763;29;20291;-91
2022/02/24 07:32:17;;;;;;;;;;;7.20;99.90;;;;;;4937417;29;19918;-92
2022/02/24 07:34:42;;;;;;;;;;;7.20;99.90;;;;;;4937116;28;19917;-96
2022/02/24 07:37:08;;;;;;;;;;;7.30;99.90;;;;;;4940594;28;19915;-95
2022/02/24 07:39:33;;;;;;;;;;;7.40;99.90;;;;;;4963094;28;20280;-93
2022/02/24 07:41:59;;;;;;;;;;;7.40;99.90;;;;;;4964184;28;19915;-92
2022/02/24 07:44:25;;;;;;;;;;;7.60;99.90;;;;;;4937306;28;19911;-92
2022/02/24 07:46:50;;;;;;;;;;;7.70;99.90;;;;;;4944218;28;19925;-92
2022/02/24 07:49:16;;;;;;;;;;;7.90;99.90;;;;;;4965856;28;20670;-92
2022/02/24 07:51:46;;;;;;;;;;;8.10;99.90;;;;;;4954277;28;20065;-91
2022/02/24 07:54:12;;;;;;;;;;;8.30;99.90;;;;;;4944185;28;19910;-93
2022/02/24 07:56:37;;;;;;;;;;;8.70;99.90;;;;;;4954840;28;20355;-93
2022/02/24 07:59:03;;;;;;;;;;;8.90;99.90;;;;;;4948888;28;20009;-92
2022/02/24 08:01:28;;;;;;;;;;;9.10;99.90;;;;;;4948819;28;19917;-92
2022/02/24 08:03:55;;;;;;;;;;;9.30;99.90;;;;;;4955435;28;19910;-96
2022/02/24 08:06:20;;;;;;;;;;;9.40;99.90;;;;;;4961822;28;20265;-92
2022/02/24 08:08:47;;;;;;;;;;;9.50;99.90;;;;;;4952119;29;19918;-92
2022/02/24 08:11:13;;;;;;;;;;;9.60;99.90;;;;;;4951451;29;19993;-93
2022/02/24 08:13:38;;;;;;;;;;;9.60;99.90;;;;;;4954249;29;20405;-92
2022/02/24 08:16:04;;;;;;;;;;;9.70;99.90;;;;;;4951768;29;19910;-93
2022/02/24 08:18:30;;;;;;;;;;;9.80;99.90;;;;;;4951771;29;19957;-93
2022/02/24 08:20:55;;;;;;;;;;;9.90;99.90;;;;;;4941365;29;20390;-93
2022/02/24 08:23:21;;;;;;;;;;;9.90;99.90;;;;;;4934425;29;19907;-92
2022/02/24 08:25:46;;;;;;;;;;;10.00;99.90;;;;;;4933182;29;19911;-92
2022/02/24 08:28:12;;;;;;;;;;;9.90;99.90;;;;;;4933242;29;19922;-92
2022/02/24 08:30:38;;;;;;;;;;;10.00;99.90;;;;;;4933514;29;20392;-93
2022/02/24 08:33:05;;;;;;;;;;;10.00;99.90;;;;;;4933537;29;20391;-92
2022/02/24 08:35:31;;;;;;;;;;;10.00;99.90;;;;;;4933605;29;19914;-93
2022/02/24 08:37:56;;;;;;;;;;;10.10;99.90;;;;;;4933219;29;19944;-93
2022/02/24 08:40:22;;;;;;;;;;;10.10;99.90;;;;;;4935460;29;20283;-93
2022/02/24 08:42:50;;;;;;;;;;;10.10;99.90;;;;;;4937377;29;19918;-93
2022/02/24 08:45:16;;;;;;;;;;;10.20;99.90;;;;;;4933476;29;20005;-90
2022/02/24 08:47:42;;;;;;;;;;;10.20;99.90;;;;;;4941026;29;19925;-94
2022/02/24 08:50:08;;;;;;;;;;;10.30;99.90;;;;;;4944245;29;19915;-95
2022/02/24 08:52:37;;;;;;;;;;;10.30;99.90;;;;;;4936945;29;20372;-93
2022/02/24 08:55:03;;;;;;;;;;;10.40;99.90;;;;;;4937445;29;20498;-91
2022/02/24 08:57:29;;;;;;;;;;;10.40;99.90;;;;;;4950747;29;19960;-93
2022/02/24 08:59:54;;;;;;;;;;;10.50;99.90;;;;;;4955050;29;20360;-93
2022/02/24 09:02:20;;;;;;;;;;;10.50;99.90;;;;;;4955356;29;19957;-92
2022/02/24 09:04:46;;;;;;;;;;;10.50;99.90;;;;;;4943565;29;20069;-93
2022/02/24 09:07:11;;;;;;;;;;;10.60;99.90;;;;;;4954736;29;19985;-96
2022/02/24 09:09:37;;;;;;;;;;;10.70;99.90;;;;;;4954803;29;20346;-93
2022/02/24 09:12:03;;;;;;;;;;;10.70;99.90;;;;;;4954513;29;19942;-94
2022/02/24 09:14:29;;;;;;;;;;;10.80;99.90;;;;;;4954811;29;19910;-93
2022/02/24 09:16:54;;;;;;;;;;;10.80;99.90;;;;;;4954572;29;19921;-92
2022/02/24 09:19:20;;;;;;;;;;;10.80;99.90;;;;;;4955019;29;20001;-91
2022/02/24 09:21:46;;;;;;;;;;;11.00;99.90;;;;;;4956181;28;19911;-95
2022/02/24 09:24:11;;;;;;;;;;;11.00;99.90;;;;;;4954625;29;20399;-94
2022/02/24 09:26:37;;;;;;;;;;;11.00;99.90;;;;;;4954548;29;19918;-93
2022/02/24 09:29:04;;;;;;;;;;;11.10;99.90;;;;;;4954409;29;19923;-91
2022/02/24 09:31:30;;;;;;;;;;;11.20;99.90;;;;;;4956032;29;19934;-93
2022/02/24 09:33:55;;;;;;;;;;;11.20;99.90;;;;;;4955575;29;19910;-94
2022/02/24 09:36:21;;;;;;;;;;;11.20;99.90;;;;;;4955358;29;20338;-92
2022/02/24 09:38:46;;;;;;;;;;;11.10;99.90;;;;;;4955280;29;19920;-95
2022/02/24 09:41:13;;;;;;;;;;;11.10;99.90;;;;;;4954629;29;20001;-93
2022/02/24 09:43:39;;;;;;;;;;;11.20;99.90;;;;;;4954973;29;19910;-93
2022/02/24 09:46:05;;;;;;;;;;;11.20;99.90;;;;;;4954686;29;20386;-94
2022/02/24 09:48:33;;;;;;;;;;;11.30;99.90;;;;;;4955317;29;20426;-92
2022/02/24 09:51:00;;;;;;;;;;;11.30;99.90;;;;;;4954600;29;19953;-94
2022/02/24 09:53:34;;;;;;;;;;;11.30;99.90;;;;;;4954699;29;19910;-93
2022/02/24 09:56:00;;;;;;;;;;;11.40;99.90;;;;;;4953755;29;19957;-94
2022/02/24 09:58:26;;;;;;;;;;;11.60;99.90;;;;;;4954218;29;20352;-94
2022/02/24 10:00:59;;;;;;;;;;;11.80;99.90;;;;;;4954295;29;19966;-91
2022/02/24 10:03:29;;;;;;;;;;;11.90;99.90;;;;;;4952964;28;19962;-94
2022/02/24 10:05:55;;;;;;;;;;;11.90;99.90;;;;;;4972818;28;19931;-93
2022/02/24 10:08:30;;;;;;;;;;;11.90;99.90;;;;;;4956662;28;19922;-91
2022/02/24 10:10:55;;;;;;;;;;;12.00;99.90;;;;;;4940634;29;19911;-91
2022/02/24 10:13:22;;;;;;;;;;;12.00;99.90;;;;;;4955342;28;19911;-92
2022/02/24 10:15:53;;;;;;;;;;;12.20;99.90;;;;;;4938307;28;20387;-92
2022/02/24 10:18:19;;;;;;;;;;;12.30;99.90;;;;;;4954274;28;19918;-90
2022/02/24 10:20:50;;;;;;;;;;;12.30;99.90;;;;;;4941657;28;20195;-91
2022/02/24 10:23:16;;;;;;;;;;;12.30;99.90;;;;;;4967391;28;19917;-91
2022/02/24 10:25:45;;;;;;;;;;;12.20;99.90;;;;;;4953230;28;19910;-91
2022/02/24 10:28:29;;;;;;;;;;;12.10;99.90;;;;;;4952961;28;19922;-90
2022/02/24 10:30:54;;;;;;;;;;;12.10;99.90;;;;;;4963533;28;19922;-92
2022/02/24 10:33:27;;;;;;;;;;;12.20;99.90;;;;;;4950926;28;19914;-92
2022/02/24 10:35:53;;;;;;;;;;;12.20;99.90;;;;;;4958656;28;20000;-92
2022/02/24 10:38:18;;;;;;;;;;;12.30;99.90;;;;;;4957903;28;20343;-91
2022/02/24 10:40:46;;;;;;;;;;;12.30;99.90;;;;;;4951642;28;19936;-93
2022/02/24 10:43:16;;;;;;;;;;;12.40;99.90;;;;;;4957349;28;19917;-91
2022/02/24 10:45:43;;;;;;;;;;;12.40;99.90;;;;;;4957729;28;19917;-92
2022/02/24 10:48:09;;;;;;;;;;;12.40;99.90;;;;;;4962820;28;19918;-93
2022/02/24 10:50:48;;;;;;;;;;;12.30;99.90;;;;;;4958416;28;20434;-90
2022/02/24 10:53:15;;;;;;;;;;;12.30;99.90;;;;;;4932469;29;19937;-90
2022/02/24 10:55:56;;;;;;;;;;;12.20;99.90;;;;;;4973510;28;19917;-93
2022/02/24 10:58:22;;;;;;;;;;;12.20;99.90;;;;;;4972737;28;19910;-92
2022/02/24 11:00:47;;;;;;;;;;;12.20;99.90;;;;;;4956604;28;20012;-92
2022/02/24 11:03:13;;;;;;;;;;;12.30;99.90;;;;;;4957155;28;20005;-92
2022/02/24 11:05:42;;;;;;;;;;;12.40;99.90;;;;;;4964496;28;19937;-93
2022/02/24 11:08:08;;;;;;;;;;;12.40;99.90;;;;;;4945117;29;19965;-93
2022/02/24 11:10:37;;;;;;;;;;;12.50;99.90;;;;;;4938247;28;19960;-91
2022/02/24 11:13:03;;;;;;;;;;;12.40;99.90;;;;;;4962884;28;20395;-92
2022/02/24 11:15:28;;;;;;;;;;;12.60;99.90;;;;;;4955804;28;19917;-92
2022/02/24 11:17:55;;;;;;;;;;;12.60;99.90;;;;;;4956299;28;19917;-92
2022/02/24 11:20:20;;;;;;;;;;;12.70;99.90;;;;;;4949974;28;19910;-93
2022/02/24 11:22:47;;;;;;;;;;;12.80;99.90;;;;;;4938345;29;19910;-92
2022/02/24 11:25:14;;;;;;;;;;;12.90;99.90;;;;;;4973073;28;20371;-91
2022/02/24 11:27:44;;;;;;;;;;;12.90;99.90;;;;;;4955613;28;19924;-92
2022/02/24 11:30:25;;;;;;;;;;;12.90;99.90;;;;;;4956098;28;19948;-91
2022/02/24 11:32:51;;;;;;;;;;;13.00;99.90;;;;;;4959714;28;19949;-92
2022/02/24 11:35:23;;;;;;;;;;;12.90;99.90;;;;;;4946137;28;19910;-92
2022/02/24 11:37:50;;;;;;;;;;;12.80;99.90;;;;;;4958378;28;19989;-92
2022/02/24 11:40:26;;;;;;;;;;;12.80;99.90;;;;;;4938935;28;19910;-92
2022/02/24 11:43:00;;;;;;;;;;;12.80;99.90;;;;;;4955290;28;19933;-89
2022/02/24 11:45:26;;;;;;;;;;;12.90;99.90;;;;;;4971422;28;19914;-91
2022/02/24 11:47:56;;;;;;;;;;;12.80;99.90;;;;;;4954367;28;20384;-90
2022/02/24 11:50:48;;;;;;;;;;;12.90;99.90;;;;;;4936301;28;19930;-92
2022/02/24 11:53:25;;;;;;;;;;;12.90;99.90;;;;;;4929627;28;19918;-92
2022/02/24 11:55:55;;;;;;;;;;;13.10;99.90;;;;;;4969933;28;20306;-93
2022/02/24 11:58:41;;;;;;;;;;;13.30;99.90;;;;;;4953489;28;19910;-92
2022/02/24 12:01:19;;;;;;;;;;;13.20;99.90;;;;;;4962122;28;20008;-92
2022/02/24 12:03:44;;;;;;;;;;;13.30;99.90;;;;;;4962784;28;20340;-93
2022/02/24 12:06:14;;;;;;;;;;;13.40;99.90;;;;;;4963350;28;19997;-91
2022/02/24 12:08:58;;;;;;;;;;;13.30;99.90;;;;;;4951623;29;20001;-92
2022/02/24 12:11:42;;;;;;;;;;;13.30;99.90;;;;;;4968892;28;19922;-91
2022/02/24 12:14:20;;;;;;;;;;;13.20;99.90;;;;;;4969290;28;19917;-91
2022/02/24 12:17:19;;;;;;;;;;;13.10;99.90;;;;;;4969064;28;19911;-92
2022/02/24 12:19:48;;;;;;;;;;;13.20;99.90;;;;;;4897045;28;19922;-92
2022/02/24 12:22:23;;;;;;;;;;;13.20;99.90;;;;;;4951307;29;20299;-91
2022/02/24 12:24:54;;;;;;;;;;;13.10;99.90;;;;;;4967454;28;19934;-91
2022/02/24 12:27:37;;;;;;;;;;;13.20;99.90;;;;;;4968260;28;19926;-93
2022/02/24 12:30:13;;;;;;;;;;;13.40;99.90;;;;;;4953815;28;20371;-92
2022/02/24 12:32:40;;;;;;;;;;;13.30;99.90;;;;;;4968363;28;20017;-91
2022/02/24 12:35:06;;;;;;;;;;;13.30;99.90;;;;;;4950919;29;19911;-92
2022/02/24 12:37:33;;;;;;;;;;;13.40;99.90;;;;;;4952080;29;19910;-92
2022/02/24 12:39:59;;;;;;;;;;;13.60;99.90;;;;;;4952224;28;20260;-92
2022/02/24 12:42:25;;;;;;;;;;;13.80;99.90;;;;;;4951411;29;19910;-92
2022/02/24 12:44:52;;;;;;;;;;;13.90;99.90;;;;;;4953641;29;19910;-90
2022/02/24 12:47:17;;;;;;;;;;;14.00;99.90;;;;;;4951382;29;19926;-90
2022/02/24 12:49:44;;;;;;;;;;;13.90;99.90;;;;;;4951405;29;20343;-91
2022/02/24 12:52:09;;;;;;;;;;;13.60;99.90;;;;;;4952466;28;20458;-91
2022/02/24 12:54:36;;;;;;;;;;;13.50;99.90;;;;;;4952591;29;20046;-92
2022/02/24 12:57:02;;;;;;;;;;;13.40;99.90;;;;;;4951052;29;20423;-92
2022/02/24 12:59:27;;;;;;;;;;;13.50;99.90;;;;;;4951117;29;20283;-92
2022/02/24 13:01:54;;;;;;;;;;;13.40;99.90;;;;;;4952565;28;19911;-90
2022/02/24 13:04:21;;;;;;;;;;;13.30;99.90;;;;;;4951387;29;19921;-90
2022/02/24 13:06:47;;;;;;;;;;;13.20;99.90;;;;;;4958040;28;19933;-90
2022/02/24 13:11:59;;;;;;;;;;;13.30;99.90;;;;;;4954432;28;20398;-90
2022/02/24 13:14:25;;;;;;;;;;;13.30;99.90;;;;;;4938263;29;19977;-89
2022/02/24 13:16:53;;;;;;;;;;;13.40;99.90;;;;;;4940920;28;20376;-90
2022/02/24 13:19:18;;;;;;;;;;;13.50;99.90;;;;;;4951182;29;20005;-89
2022/02/24 13:21:44;;;;;;;;;;;13.50;99.90;;;;;;4953594;28;19990;-90
2022/02/24 13:24:10;;;;;;;;;;;13.50;99.90;;;;;;4935980;29;19917;-90
2022/02/24 13:26:40;;;;;;;;;;;13.50;99.90;;;;;;4937728;29;19918;-89
2022/02/24 13:29:09;;;;;;;;;;;13.40;99.90;;;;;;4964819;28;19957;-91
2022/02/24 13:31:34;;;;;;;;;;;13.40;99.90;;;;;;4939390;29;19914;-91
2022/02/24 13:34:10;;;;;;;;;;;13.40;99.90;;;;;;4963921;28;19945;-90
2022/02/24 13:36:36;;;;;;;;;;;13.40;99.90;;;;;;4949084;28;19910;-90
2022/02/24 13:39:02;;;;;;;;;;;13.40;99.90;;;;;;4975485;28;19910;-91
2022/02/24 13:41:27;;;;;;;;;;;13.40;99.90;;;;;;4964153;28;19914;-91
2022/02/24 13:43:57;;;;;;;;;;;13.40;99.90;;;;;;4973120;28;20016;-92
2022/02/24 13:46:24;;;;;;;;;;;13.20;99.90;;;;;;4939358;29;19910;-92
2022/02/24 13:48:50;;;;;;;;;;;13.20;99.90;;;;;;4956463;28;19911;-91
2022/02/24 13:51:18;;;;;;;;;;;13.20;99.90;;;;;;4939452;29;19911;-91
2022/02/24 13:53:54;;;;;;;;;;;13.20;99.90;;;;;;4942452;28;19917;-91
2022/02/24 13:56:21;;;;;;;;;;;13.20;99.90;;;;;;4957460;28;20375;-92
2022/02/24 13:58:47;;;;;;;;;;;12.80;99.90;;;;;;4945524;28;19910;-92
2022/02/24 14:01:16;;;;;;;;;;;12.10;99.90;;;;;;4952414;29;19911;-95
2022/02/24 14:04:08;;;;;;;;;;;11.50;99.90;;;;;;4955382;28;20403;-96
2022/02/24 14:07:19;;;;;;;;;;;11.20;99.90;;;;;;4917298;29;19931;-94
2022/02/24 14:10:05;;;;;;;;;;;10.90;99.90;;;;;;5575940;23;19930;-93
2022/02/24 14:12:30;;;;;;;;;;;10.70;99.90;;;;;;4952130;29;19915;-92
2022/02/24 14:14:56;;;;;;;;;;;10.70;99.90;;;;;;4938458;29;19915;-91
2022/02/24 14:17:23;;;;;;;;;;;10.70;99.90;;;;;;4955373;29;20356;-91
2022/02/24 14:19:48;;;;;;;;;;;10.80;99.90;;;;;;4939118;29;20319;-93
2022/02/24 14:22:14;;;;;;;;;;;11.00;99.90;;;;;;4955704;29;19994;-90
2022/02/24 14:24:39;;;;;;;;;;;11.20;99.90;;;;;;4939373;29;19910;-91
2022/02/24 14:27:05;;;;;;;;;;;11.30;99.90;;;;;;4938186;29;19918;-91
2022/02/24 14:29:30;;;;;;;;;;;11.60;99.90;;;;;;4939367;29;19917;-92